createdAt,value
2023-10-26T00:02:19.733Z,97633.69
2023-10-26T00:04:46.863Z,97627.05
2023-10-26T00:07:14.961Z,97627.70
2023-10-26T00:09:41.718Z,97633.07
2023-10-26T00:12:09.103Z,97626.20
2023-10-26T00:14:35.789Z,97615.93
2023-10-26T00:17:02.676Z,97617.56
2023-10-26T00:19:29.478Z,97616.55
2023-10-26T00:21:56.962Z,97613.49
2023-10-26T00:24:23.905Z,97609.26
2023-10-26T00:26:50.730Z,97604.05
2023-10-26T00:29:18.480Z,97603.67
2023-10-26T00:31:45.214Z,97602.25
2023-10-26T00:34:11.984Z,97603.36
2023-10-26T00:36:38.798Z,97603.76
2023-10-26T00:39:05.684Z,97601.44
2023-10-26T00:41:32.984Z,97606.05
2023-10-26T00:44:00.576Z,97607.52
2023-10-26T00:46:27.281Z,97609.58
2023-10-26T00:48:54.154Z,97607.86
2023-10-26T00:51:21.935Z,97602.38
2023-10-26T00:53:48.680Z,97604.05
2023-10-26T00:56:15.362Z,97604.78
2023-10-26T00:58:42.513Z,97604.62
2023-10-26T01:01:10.292Z,97603.56
2023-10-26T01:03:37.263Z,97604.62
2023-10-26T01:06:04.611Z,97604.09
2023-10-26T01:08:31.831Z,97608.36
2023-10-26T01:10:58.698Z,97606.80
2023-10-26T01:13:25.722Z,97604.65
2023-10-26T01:15:52.390Z,97608.27
2023-10-26T01:18:19.353Z,97608.95
2023-10-26T01:20:46.352Z,97609.63
2023-10-26T01:23:13.193Z,97604.04
2023-10-26T01:25:40.347Z,97605.10
2023-10-26T01:28:07.907Z,97606.07
2023-10-26T01:30:35.471Z,97604.45
2023-10-26T01:33:02.334Z,97610.95
2023-10-26T01:35:36.454Z,97612.05
2023-10-26T01:38:03.258Z,97614.82
2023-10-26T01:40:30.303Z,97613.88
2023-10-26T01:42:57.567Z,97611.39
2023-10-26T01:45:24.970Z,97617.10
2023-10-26T01:47:54.998Z,97620.42
2023-10-26T01:50:21.789Z,97624.91
2023-10-26T01:52:48.509Z,97623.67
2023-10-26T01:55:16.409Z,97620.84
2023-10-26T01:57:44.651Z,97620.05
2023-10-26T02:00:12.226Z,97621.00
2023-10-26T02:02:39.314Z,97625.55
2023-10-26T02:05:06.900Z,97625.71
2023-10-26T02:07:34.385Z,97623.75
2023-10-26T02:10:01.012Z,97624.96
2023-10-26T02:12:27.995Z,97624.39
2023-10-26T02:14:54.812Z,97622.81
2023-10-26T02:17:21.668Z,97625.83
2023-10-26T02:19:48.585Z,97625.13
2023-10-26T02:22:16.087Z,97628.55
2023-10-26T02:24:43.804Z,97630.17
2023-10-26T02:27:11.908Z,97632.14
2023-10-26T02:29:38.925Z,97634.67
2023-10-26T02:32:06.789Z,97637.77
2023-10-26T02:34:33.582Z,97639.97
2023-10-26T02:37:01.704Z,97639.37
2023-10-26T02:39:28.740Z,97635.54
2023-10-26T02:41:55.723Z,97635.45
2023-10-26T02:44:22.569Z,97642.37
2023-10-26T02:46:49.377Z,97643.06
2023-10-26T02:49:16.220Z,97648.88
2023-10-26T02:51:43.263Z,97646.77
2023-10-26T02:54:10.244Z,97646.84
2023-10-26T02:56:36.953Z,97649.28
2023-10-26T02:59:04.816Z,97646.84
2023-10-26T03:01:35.177Z,97653.71
2023-10-26T03:04:05.725Z,97651.52
2023-10-26T03:06:39.220Z,97664.41
2023-10-26T03:09:06.502Z,97667.02
2023-10-26T03:11:33.573Z,97662.23
2023-10-26T03:14:00.437Z,97659.82
2023-10-26T03:16:27.398Z,97664.77
2023-10-26T03:18:54.096Z,97664.20
2023-10-26T03:21:21.534Z,97664.77
2023-10-26T03:23:56.322Z,97663.50
2023-10-26T03:26:23.971Z,97665.14
2023-10-26T03:28:51.304Z,97666.80
2023-10-26T03:31:18.086Z,97669.33
2023-10-26T03:33:44.813Z,97671.31
2023-10-26T03:36:15.884Z,97672.41
2023-10-26T03:38:43.400Z,97674.41
2023-10-26T03:41:11.358Z,97675.43
2023-10-26T03:43:38.230Z,97676.45
2023-10-26T03:46:08.729Z,97680.71
2023-10-26T03:48:36.173Z,97678.17
2023-10-26T03:51:03.380Z,97677.83
2023-10-26T03:53:30.926Z,97680.52
2023-10-26T03:55:58.250Z,97677.66
2023-10-26T03:58:24.983Z,97683.80
2023-10-26T04:00:52.158Z,97685.75
2023-10-26T04:03:19.133Z,97689.09
2023-10-26T04:05:46.040Z,97686.92
2023-10-26T04:08:13.158Z,97687.46
2023-10-26T04:10:42.354Z,97694.73
2023-10-26T04:13:09.220Z,97697.99
2023-10-26T04:15:36.076Z,97702.64
2023-10-26T04:18:09.358Z,97700.88
2023-10-26T04:20:36.580Z,97700.14
2023-10-26T04:23:04.683Z,97700.09
2023-10-26T04:25:46.537Z,97699.56
2023-10-26T04:28:19.023Z,97709.63
2023-10-26T04:30:48.038Z,97711.94
2023-10-26T04:33:15.869Z,97712.16
2023-10-26T04:35:47.127Z,97712.94
2023-10-26T04:38:14.027Z,97712.90
2023-10-26T04:40:42.065Z,97719.16
2023-10-26T04:43:09.713Z,97721.81
2023-10-26T04:45:36.563Z,97735.48
2023-10-26T04:48:04.154Z,97735.32
2023-10-26T04:50:31.695Z,97740.00
2023-10-26T04:52:59.655Z,97746.27
2023-10-26T04:55:31.096Z,97744.85
2023-10-26T04:57:58.759Z,97745.46
2023-10-26T05:00:26.750Z,97747.38
2023-10-26T05:02:53.986Z,97744.13
2023-10-26T05:05:20.923Z,97752.91
2023-10-26T05:07:47.682Z,97757.14
2023-10-26T05:10:14.899Z,97760.18
2023-10-26T05:12:41.805Z,97763.89
2023-10-26T05:15:09.415Z,97768.33
2023-10-26T05:17:38.173Z,97773.27
2023-10-26T05:20:06.155Z,97774.37
2023-10-26T05:22:33.870Z,97776.30
2023-10-26T05:25:05.097Z,97772.92
2023-10-26T05:27:33.573Z,97773.27
2023-10-26T05:30:01.028Z,97766.15
2023-10-26T05:32:27.960Z,97759.84
2023-10-26T05:34:55.344Z,97762.04
2023-10-26T05:37:22.238Z,97763.02
2023-10-26T05:39:49.103Z,97771.79
2023-10-26T05:42:15.941Z,97771.63
2023-10-26T05:44:43.084Z,97769.77
2023-10-26T05:47:10.236Z,97762.93
2023-10-26T05:49:37.054Z,97764.73
2023-10-26T05:52:04.655Z,97761.16
2023-10-26T05:54:32.918Z,97760.42
2023-10-26T05:57:01.001Z,97763.47
2023-10-26T05:59:27.916Z,97770.02
2023-10-26T06:01:54.801Z,97776.81
2023-10-26T06:04:21.999Z,97778.95
2023-10-26T06:06:48.974Z,97776.19
2023-10-26T06:09:16.754Z,97772.83
2023-10-26T06:11:43.836Z,97777.73
2023-10-26T06:14:10.751Z,97781.36
2023-10-26T06:16:38.073Z,97783.64
2023-10-26T06:19:09.038Z,97786.76
2023-10-26T06:21:36.278Z,97794.44
2023-10-26T06:24:03.968Z,97788.28
2023-10-26T06:26:33.593Z,97789.88
2023-10-26T06:29:00.755Z,97787.19
2023-10-26T06:31:29.088Z,97792.77
2023-10-26T06:33:55.919Z,97794.27
2023-10-26T06:36:22.561Z,97796.90
2023-10-26T06:38:49.878Z,97801.18
2023-10-26T06:41:17.186Z,97801.10
2023-10-26T06:43:45.302Z,97797.39
2023-10-26T06:46:12.218Z,97798.38
2023-10-26T06:48:39.148Z,97799.81
2023-10-26T06:51:07.232Z,97799.45
2023-10-26T06:53:34.813Z,97806.91
2023-10-26T06:56:01.975Z,97811.39
2023-10-26T06:58:28.910Z,97809.52
2023-10-26T07:00:55.942Z,97814.64
2023-10-26T07:03:23.286Z,97810.31
2023-10-26T07:05:50.667Z,97811.11
2023-10-26T07:08:17.854Z,97814.18
2023-10-26T07:10:44.857Z,97810.95
2023-10-26T07:13:12.598Z,97813.55
2023-10-26T07:15:39.916Z,97813.19
2023-10-26T07:18:07.037Z,97817.44
2023-10-26T07:20:34.033Z,97820.91
2023-10-26T07:23:01.154Z,97826.20
2023-10-26T07:25:28.061Z,97827.23
2023-10-26T07:27:55.051Z,97827.40
2023-10-26T07:30:22.184Z,97833.30
2023-10-26T07:32:49.245Z,97835.83
2023-10-26T07:35:16.532Z,97837.70
2023-10-26T07:37:47.930Z,97835.48
2023-10-26T07:40:29.250Z,97838.04
2023-10-26T07:42:57.613Z,97836.79
2023-10-26T07:45:26.594Z,97840.13
2023-10-26T07:47:55.163Z,97842.64
2023-10-26T07:50:29.629Z,97843.73
2023-10-26T07:52:56.471Z,97842.55
2023-10-26T07:55:23.361Z,97846.18
2023-10-26T07:57:50.395Z,97850.95
2023-10-26T08:00:18.390Z,97846.21
2023-10-26T08:02:45.771Z,97840.06
2023-10-26T08:05:13.490Z,97839.35
2023-10-26T08:07:40.495Z,97834.54
2023-10-26T08:10:08.863Z,97837.68
2023-10-26T08:12:36.161Z,97837.80
2023-10-26T08:16:29.892Z,97842.76
2023-10-26T08:17:51.391Z,97846.52
2023-10-26T08:20:20.039Z,97852.20
2023-10-26T08:22:46.876Z,97854.55
2023-10-26T08:25:16.238Z,97856.16
2023-10-26T08:27:46.094Z,97856.48
2023-10-26T08:30:13.653Z,97856.95
2023-10-26T08:32:40.528Z,97851.34
2023-10-26T08:35:08.291Z,97852.27
2023-10-26T08:37:35.544Z,97850.08
2023-10-26T08:40:21.927Z,97856.83
2023-10-26T08:42:49.328Z,97858.29
2023-10-26T08:45:24.654Z,97867.64
2023-10-26T08:47:52.013Z,97872.09
2023-10-26T08:50:23.253Z,97872.04
2023-10-26T08:52:52.051Z,97873.08
2023-10-26T08:55:20.466Z,97875.66
2023-10-26T08:57:52.652Z,97870.56
2023-10-26T09:00:20.929Z,97867.19
2023-10-26T09:02:49.281Z,97866.56
2023-10-26T09:05:16.794Z,97873.26
2023-10-26T09:07:44.024Z,97873.33
2023-10-26T09:10:11.677Z,97872.59
2023-10-26T09:12:38.844Z,97877.48
2023-10-26T09:15:07.141Z,97880.42
2023-10-26T09:17:34.533Z,97882.25
2023-10-26T09:20:18.353Z,97882.88
2023-10-26T09:22:45.422Z,97882.83
2023-10-26T09:25:13.408Z,97883.05
2023-10-26T09:27:41.479Z,97882.89
2023-10-26T09:30:29.440Z,97884.58
2023-10-26T09:32:57.447Z,97884.38
2023-10-26T09:35:31.702Z,97888.14
2023-10-26T09:37:59.299Z,97887.40
2023-10-26T09:40:27.163Z,97887.23
2023-10-26T09:42:57.202Z,97884.31
2023-10-26T09:45:24.607Z,97880.98
2023-10-26T09:47:51.820Z,97884.02
2023-10-26T09:50:19.229Z,97883.42
2023-10-26T09:52:49.857Z,97884.48
2023-10-26T09:55:18.685Z,97884.20
2023-10-26T09:57:57.308Z,97879.45
2023-10-26T10:00:32.485Z,97874.72
2023-10-26T10:03:17.979Z,97865.83
2023-10-26T10:05:47.128Z,97865.64
2023-10-26T10:08:14.615Z,97863.11
2023-10-26T10:11:18.166Z,97858.98
2023-10-26T10:13:45.910Z,97854.76
2023-10-26T10:16:37.879Z,97851.55
2023-10-26T10:19:21.388Z,97851.70
2023-10-26T10:21:49.714Z,97849.66
2023-10-26T10:24:40.420Z,97847.49
2023-10-26T10:27:12.509Z,97848.27
2023-10-26T10:29:40.872Z,97848.80
2023-10-26T10:32:11.252Z,97854.96
2023-10-26T10:34:46.367Z,97857.82
2023-10-26T10:37:22.580Z,97857.91
2023-10-26T10:40:09.914Z,97859.80
2023-10-26T10:42:50.514Z,97863.08
2023-10-26T10:45:19.327Z,97867.48
2023-10-26T10:47:49.979Z,97865.26
2023-10-26T10:50:22.178Z,97861.30
2023-10-26T10:52:54.810Z,97856.11
2023-10-26T10:55:27.236Z,97849.44
2023-10-26T10:57:56.457Z,97847.22
2023-10-26T11:00:25.459Z,97850.79
2023-10-26T11:02:57.633Z,97846.42
2023-10-26T11:05:38.514Z,97847.57
2023-10-26T11:08:07.939Z,97851.94
2023-10-26T11:10:50.082Z,97852.40
2023-10-26T11:13:21.005Z,97855.42
2023-10-26T11:15:50.343Z,97852.67
2023-10-26T11:18:18.046Z,97857.91
2023-10-26T11:20:48.368Z,97861.48
2023-10-26T11:23:22.591Z,97860.27
2023-10-26T11:25:50.239Z,97860.10
2023-10-26T11:28:33.287Z,97863.15
2023-10-26T11:31:01.004Z,97862.23
2023-10-26T11:33:32.662Z,97859.27
2023-10-26T11:35:59.912Z,97859.41
2023-10-26T11:46:11.139Z,97872.84
2023-10-26T11:48:38.517Z,97867.61
2023-10-26T11:51:07.456Z,97857.42
2023-10-26T11:53:39.800Z,97849.39
2023-10-26T11:56:09.401Z,97850.25
2023-10-26T11:58:37.366Z,97851.46
2023-10-26T12:01:05.737Z,97857.92
2023-10-26T12:03:33.023Z,97856.17
2023-10-26T12:06:02.606Z,97852.00
2023-10-26T12:08:31.489Z,97852.62
2023-10-26T12:11:01.196Z,97851.27
2023-10-26T12:13:34.101Z,97853.14
2023-10-26T12:16:01.439Z,97842.89
2023-10-26T12:18:28.946Z,97840.42
2023-10-26T12:21:13.801Z,97839.23
2023-10-26T12:23:40.726Z,97840.91
2023-10-26T12:26:08.056Z,97835.20
2023-10-26T12:28:35.445Z,97833.85
2023-10-26T12:31:03.301Z,97835.45
2023-10-26T12:33:30.275Z,97836.31
2023-10-26T12:35:57.469Z,97841.44
2023-10-26T12:38:24.514Z,97840.11
2023-10-26T12:40:51.476Z,97838.50
2023-10-26T12:43:18.404Z,97837.98
2023-10-26T12:45:45.457Z,97837.13
2023-10-26T12:48:12.437Z,97836.73
2023-10-26T12:50:39.763Z,97837.25
2023-10-26T12:53:06.797Z,97834.50
2023-10-26T12:55:35.773Z,97830.63
2023-10-26T12:58:03.013Z,97833.45
2023-10-26T13:00:31.260Z,97838.13
2023-10-26T13:02:58.379Z,97831.27
2023-10-26T13:05:25.443Z,97831.36
2023-10-26T13:07:52.352Z,97832.23
2023-10-26T13:10:19.297Z,97829.95
2023-10-26T13:12:49.045Z,97832.95
2023-10-26T13:15:21.043Z,97832.05
2023-10-26T13:17:49.843Z,97830.52
2023-10-26T13:20:16.808Z,97828.41
2023-10-26T13:22:43.792Z,97828.91
2023-10-26T13:25:10.972Z,97831.23
2023-10-26T13:27:38.192Z,97827.88
2023-10-26T13:30:06.744Z,97828.78
2023-10-26T13:32:37.167Z,97832.06
2023-10-26T13:35:05.261Z,97827.17
2023-10-26T13:37:32.376Z,97827.65
2023-10-26T13:40:03.614Z,97824.08
2023-10-26T13:42:35.425Z,97824.77
2023-10-26T13:45:03.560Z,97824.35
2023-10-26T13:47:30.779Z,97821.80
2023-10-26T13:49:57.857Z,97819.80
2023-10-26T13:52:25.928Z,97817.98
2023-10-26T13:54:52.994Z,97818.32
2023-10-26T13:57:20.022Z,97821.96
2023-10-26T13:59:47.373Z,97825.20
2023-10-26T14:02:14.422Z,97829.51
2023-10-26T14:04:41.540Z,97830.80
2023-10-26T14:07:09.953Z,97829.55
2023-10-26T14:09:37.039Z,97832.92
2023-10-26T14:12:04.345Z,97827.12
2023-10-26T14:14:33.348Z,97827.45
2023-10-26T14:17:00.227Z,97831.95
2023-10-26T14:19:27.817Z,97827.64
2023-10-26T14:21:55.031Z,97830.34
2023-10-26T14:24:22.143Z,97828.09
2023-10-26T14:26:49.495Z,97824.27
2023-10-26T14:29:16.750Z,97825.91
2023-10-26T14:31:43.751Z,97828.41
2023-10-26T14:34:10.988Z,97831.34
2023-10-26T14:36:38.149Z,97834.30
2023-10-26T14:39:05.242Z,97835.20
2023-10-26T14:41:32.199Z,97831.10
2023-10-26T14:43:59.652Z,97834.72
2023-10-26T14:46:27.912Z,97830.73
2023-10-26T14:48:57.213Z,97829.96
2023-10-26T14:51:24.267Z,97837.19
2023-10-26T14:53:51.219Z,97838.59
2023-10-26T14:56:18.163Z,97838.98
2023-10-26T14:58:45.148Z,97838.61
2023-10-26T15:01:12.627Z,97839.02
2023-10-26T15:03:39.822Z,97837.59
2023-10-26T15:06:07.275Z,97841.72
2023-10-26T15:08:34.906Z,97839.23
2023-10-26T15:11:23.025Z,97844.27
2023-10-26T15:13:50.736Z,97844.02
2023-10-26T15:16:17.680Z,97846.20
2023-10-26T15:18:45.759Z,97845.37
2023-10-26T15:21:12.711Z,97848.06
2023-10-26T15:23:39.535Z,97847.54
2023-10-26T15:26:06.716Z,97847.75
2023-10-26T15:28:33.681Z,97848.30
2023-10-26T15:31:04.148Z,97848.45
2023-10-26T15:33:31.643Z,97849.44
2023-10-26T15:36:00.930Z,97857.63
2023-10-26T15:38:30.653Z,97856.86
2023-10-26T15:41:04.470Z,97846.66
2023-10-26T15:43:32.046Z,97840.98
2023-10-26T15:46:05.592Z,97838.43
2023-10-26T15:49:32.658Z,97837.98
2023-10-26T15:51:20.283Z,97837.73
2023-10-26T15:53:47.278Z,97837.29
2023-10-26T15:56:14.273Z,97838.45
2023-10-26T15:58:41.321Z,97840.13
2023-10-26T16:01:08.526Z,97844.49
2023-10-26T16:03:35.580Z,97846.95
2023-10-26T16:06:07.008Z,97848.92
2023-10-26T16:08:34.634Z,97845.46
2023-10-26T16:11:01.825Z,97843.82
2023-10-26T16:13:29.956Z,97843.89
2023-10-26T16:15:57.045Z,97842.80
2023-10-26T16:18:24.264Z,97846.80
2023-10-26T16:20:51.916Z,97851.73
2023-10-26T16:23:19.091Z,97854.79
2023-10-26T16:25:46.323Z,97845.48
2023-10-26T16:28:13.371Z,97846.38
2023-10-26T16:30:43.198Z,97844.45
2023-10-26T16:33:10.854Z,97840.59
2023-10-26T16:35:38.495Z,97843.02
2023-10-26T16:38:05.326Z,97836.34
2023-10-26T16:40:32.483Z,97832.84
2023-10-26T16:42:59.427Z,97831.48
2023-10-26T16:45:26.487Z,97831.89
2023-10-26T16:47:56.302Z,97829.41
2023-10-26T16:50:24.027Z,97830.02
2023-10-26T16:52:50.971Z,97828.34
2023-10-26T16:55:18.324Z,97824.06
2023-10-26T16:57:45.293Z,97821.32
2023-10-26T17:00:13.157Z,97823.81
2023-10-26T17:02:41.042Z,97819.67
2023-10-26T17:05:09.172Z,97816.58
2023-10-26T17:07:40.009Z,97813.81
2023-10-26T17:10:08.280Z,97814.48
2023-10-26T17:12:35.574Z,97813.44
2023-10-26T17:15:02.494Z,97812.14
2023-10-26T17:17:29.471Z,97807.20
2023-10-26T17:19:56.906Z,97805.77
2023-10-26T17:22:23.924Z,97801.90
2023-10-26T17:24:50.809Z,97801.08
2023-10-26T17:27:17.712Z,97799.49
2023-10-26T17:29:48.142Z,97801.40
2023-10-26T17:32:14.876Z,97799.98
2023-10-26T17:34:41.825Z,97799.48
2023-10-26T17:37:08.689Z,97793.33
2023-10-26T17:39:35.617Z,97792.02
2023-10-26T17:42:02.470Z,97792.36
2023-10-26T17:44:29.613Z,97792.23
2023-10-26T17:46:56.598Z,97791.73
2023-10-26T17:49:23.698Z,97790.96
2023-10-26T17:51:50.735Z,97788.71
2023-10-26T17:54:17.897Z,97790.38
2023-10-26T17:56:44.848Z,97789.27
2023-10-26T17:59:11.688Z,97790.20
2023-10-26T18:01:39.162Z,97786.64
2023-10-26T18:04:06.340Z,97784.47
2023-10-26T18:06:34.173Z,97786.16
2023-10-26T18:09:01.130Z,97785.59
2023-10-26T18:11:27.955Z,97784.13
2023-10-26T18:13:54.820Z,97787.79
2023-10-26T18:16:21.708Z,97787.46
2023-10-26T18:18:48.628Z,97783.52
2023-10-26T18:21:15.837Z,97780.20
2023-10-26T18:23:42.720Z,97780.29
2023-10-26T18:26:10.757Z,97782.19
2023-10-26T18:28:39.636Z,97784.63
2023-10-26T18:31:13.931Z,97789.14
2023-10-26T18:33:42.031Z,97779.20
2023-10-26T18:36:13.667Z,97780.14
2023-10-26T18:38:41.465Z,97771.09
2023-10-26T18:41:09.091Z,97764.77
2023-10-26T18:43:36.272Z,97764.65
2023-10-26T18:46:06.617Z,97766.68
2023-10-26T18:48:35.345Z,97763.61
2023-10-26T18:51:03.221Z,97759.79
2023-10-26T18:53:30.270Z,97760.30
2023-10-26T18:55:57.328Z,97757.57
2023-10-26T18:58:24.764Z,97756.38
2023-10-26T19:00:52.273Z,97753.77
2023-10-26T19:03:21.003Z,97757.83
2023-10-26T19:05:48.468Z,97754.31
2023-10-26T19:08:15.515Z,97752.20
2023-10-26T19:10:42.421Z,97754.11
2023-10-26T19:13:09.930Z,97749.64
2023-10-26T19:15:37.172Z,97745.39
2023-10-26T19:18:04.044Z,97742.82
2023-10-26T19:20:31.473Z,97736.67
2023-10-26T19:22:58.451Z,97733.17
2023-10-26T19:25:26.901Z,97725.93
2023-10-26T19:27:54.345Z,97723.73
2023-10-26T19:30:30.234Z,97723.77
2023-10-26T19:32:57.642Z,97720.46
2023-10-26T19:35:25.463Z,97720.33
2023-10-26T19:37:54.676Z,97720.48
2023-10-26T19:40:21.866Z,97715.39
2023-10-26T19:42:48.736Z,97717.91
2023-10-26T19:45:15.766Z,97720.42
2023-10-26T19:47:43.911Z,97719.16
2023-10-26T19:50:11.710Z,97717.61
2023-10-26T19:52:38.876Z,97716.79
2023-10-26T19:55:07.605Z,97717.02
2023-10-26T19:57:35.442Z,97712.95
2023-10-26T20:00:05.578Z,97705.02
2023-10-26T20:02:40.028Z,97704.08
2023-10-26T20:05:07.530Z,97704.48
2023-10-26T20:07:34.653Z,97702.86
2023-10-26T20:10:01.742Z,97699.48
2023-10-26T20:12:28.857Z,97691.05
2023-10-26T20:14:55.776Z,97690.04
2023-10-26T20:17:22.732Z,97685.48
2023-10-26T20:19:49.560Z,97682.64
2023-10-26T20:22:16.353Z,97676.46
2023-10-26T20:24:48.380Z,97671.81
2023-10-26T20:27:16.439Z,97670.30
2023-10-26T20:29:43.641Z,97667.85
2023-10-26T20:32:11.561Z,97666.17
2023-10-26T20:34:39.040Z,97653.79
2023-10-26T20:37:06.322Z,97646.38
2023-10-26T20:39:33.853Z,97645.23
2023-10-26T20:42:00.675Z,97640.30
2023-10-26T20:44:27.546Z,97636.64
2023-10-26T20:46:54.394Z,97629.88
2023-10-26T20:49:21.924Z,97625.73
2023-10-26T20:51:48.835Z,97623.30
2023-10-26T20:54:15.799Z,97624.79
2023-10-26T20:56:44.186Z,97625.92
2023-10-26T20:59:11.633Z,97626.98
2023-10-26T21:01:38.874Z,97625.31
2023-10-26T21:04:06.108Z,97622.41
2023-10-26T21:06:32.913Z,97622.08
2023-10-26T21:09:01.159Z,97617.58
2023-10-26T21:11:28.663Z,97622.14
2023-10-26T21:13:55.581Z,97625.60
2023-10-26T21:16:22.662Z,97628.41
2023-10-26T21:18:50.214Z,97629.84
2023-10-26T21:21:17.124Z,97622.77
2023-10-26T21:23:43.894Z,97624.11
2023-10-26T21:26:11.428Z,97622.34
2023-10-26T21:28:39.622Z,97623.96
2023-10-26T21:31:06.655Z,97624.41
2023-10-26T21:33:33.832Z,97626.73
2023-10-26T21:36:01.069Z,97624.91
2023-10-26T21:38:27.896Z,97624.63
2023-10-26T21:40:54.842Z,97620.77
2023-10-26T21:43:22.084Z,97620.89
2023-10-26T21:45:48.938Z,97621.58
2023-10-26T21:48:15.871Z,97617.27
2023-10-26T21:50:42.929Z,97612.73
2023-10-26T21:53:10.068Z,97610.88
2023-10-26T21:55:40.116Z,97607.30
2023-10-26T21:58:07.474Z,97606.80
2023-10-26T22:00:34.645Z,97600.52
2023-10-26T22:03:01.555Z,97596.34
2023-10-26T22:05:28.679Z,97587.23
2023-10-26T22:07:55.452Z,97583.73
2023-10-26T22:10:22.320Z,97586.60
2023-10-26T22:12:49.348Z,97588.67
2023-10-26T22:15:16.153Z,97582.23
2023-10-26T22:17:43.227Z,97586.06
2023-10-26T22:20:10.652Z,97581.48
2023-10-26T22:22:38.026Z,97581.35
2023-10-26T22:25:05.638Z,97583.38
2023-10-26T22:27:33.056Z,97573.91
2023-10-26T22:29:59.969Z,97574.11
2023-10-26T22:32:26.761Z,97571.80
2023-10-26T22:34:53.659Z,97570.20
2023-10-26T22:37:20.620Z,97559.83
2023-10-26T22:39:47.980Z,97568.66
2023-10-26T22:42:15.500Z,97565.98
2023-10-26T22:44:42.588Z,97564.59
2023-10-26T22:47:09.565Z,97560.98
2023-10-26T22:49:36.929Z,97555.80
2023-10-26T22:52:05.656Z,97555.64
2023-10-26T22:54:32.275Z,97554.10
2023-10-26T22:56:59.122Z,97552.27
2023-10-26T22:59:26.673Z,97547.63
2023-10-26T23:01:53.520Z,97541.60
2023-10-26T23:04:20.460Z,97538.33
2023-10-26T23:06:47.902Z,97536.15
2023-10-26T23:09:15.382Z,97532.20
2023-10-26T23:11:42.756Z,97533.26
2023-10-26T23:14:10.011Z,97535.90
2023-10-26T23:16:37.607Z,97534.22
2023-10-26T23:19:04.908Z,97525.19
2023-10-26T23:21:32.672Z,97524.95
2023-10-26T23:24:05.048Z,97522.63
2023-10-26T23:26:35.118Z,97524.34
2023-10-26T23:29:03.471Z,97523.94
2023-10-26T23:31:30.476Z,97521.70
2023-10-26T23:33:57.682Z,97519.30
2023-10-26T23:36:24.779Z,97518.52
2023-10-26T23:38:52.543Z,97522.06
2023-10-26T23:41:19.312Z,97522.05
2023-10-26T23:43:46.122Z,97526.46
2023-10-26T23:46:13.017Z,97520.80
2023-10-26T23:48:39.727Z,97518.00
2023-10-26T23:51:06.676Z,97514.33
2023-10-26T23:53:35.333Z,97512.69
2023-10-26T23:56:02.735Z,97511.31
2023-10-26T23:58:29.526Z,97511.04
